createdAt,value
2022-12-01T06:24:40.224Z,32.33
2022-12-01T06:27:08.785Z,52.70
2022-12-01T06:29:41.852Z,46.15
2022-12-01T06:32:13.697Z,51.70
2022-12-01T06:34:44.094Z,72.32
2022-12-01T06:37:17.166Z,119.65
2022-12-01T06:39:45.281Z,57.63
2022-12-01T06:42:15.283Z,47.55
2022-12-01T06:45:11.323Z,53.92
2022-12-01T06:47:41.746Z,50.38
2022-12-01T06:50:13.038Z,43.65
2022-12-01T06:52:41.459Z,42.83
2022-12-01T06:55:11.517Z,41.58
2022-12-01T06:57:43.973Z,45.25
2022-12-01T07:00:14.096Z,56.63
2022-12-01T07:02:42.685Z,60.22
2022-12-01T07:05:11.103Z,58.33
2022-12-01T07:07:40.260Z,65.10
2022-12-01T07:10:10.016Z,61.60
2022-12-01T07:12:39.290Z,67.20
2022-12-01T07:15:09.261Z,58.65
2022-12-01T07:17:37.705Z,52.63
2022-12-01T07:20:06.524Z,64.63
2022-12-01T07:22:34.894Z,58.00
2022-12-01T07:25:03.162Z,60.95
2022-12-01T07:27:32.456Z,61.60
2022-12-01T07:30:00.483Z,63.63
2022-12-01T07:32:28.946Z,76.00
2022-12-01T07:34:56.828Z,66.38
2022-12-01T07:37:25.096Z,67.70
2022-12-01T07:39:53.296Z,54.40
2022-12-01T07:42:21.728Z,56.37
2022-12-01T07:44:49.940Z,56.67
2022-12-01T07:47:19.584Z,50.78
2022-12-01T07:49:48.326Z,40.20
2022-12-01T07:52:17.033Z,46.78
2022-12-01T07:54:46.860Z,44.80
2022-12-01T07:57:15.410Z,43.00
2022-12-01T08:00:41.422Z,48.47
2022-12-01T08:03:09.567Z,34.78
2022-12-01T08:05:37.443Z,35.92
2022-12-01T08:08:06.573Z,43.30
2022-12-01T08:10:34.598Z,44.28
2022-12-01T08:13:03.898Z,40.80
2022-12-01T08:15:31.781Z,39.72
2022-12-01T08:18:01.739Z,39.78
2022-12-01T08:20:29.910Z,36.33
2022-12-01T08:23:02.122Z,34.85
2022-12-01T08:25:30.611Z,34.35
2022-12-01T08:28:00.909Z,33.35
2022-12-01T08:30:30.692Z,34.35
2022-12-01T08:32:59.524Z,32.37
2022-12-01T08:35:27.917Z,37.05
2022-12-01T08:37:56.320Z,30.25
2022-12-01T08:40:24.648Z,22.58
2022-12-01T08:42:53.756Z,23.63
2022-12-01T08:45:23.843Z,33.30
2022-12-01T08:47:59.736Z,48.03
2022-12-01T08:50:31.300Z,28.42
2022-12-01T08:52:59.788Z,70.00
2022-12-01T11:08:24.683Z,26.75
2022-12-01T11:10:55.361Z,16.40
2022-12-01T11:17:43.773Z,18.65
2022-12-01T11:20:37.486Z,13.13
2022-12-01T11:23:27.183Z,20.63
2022-12-01T11:26:14.330Z,18.80
2022-12-01T11:28:55.049Z,13.30
2022-12-01T11:31:36.718Z,16.30
2022-12-01T11:34:05.602Z,17.53
2022-12-01T11:36:45.846Z,15.57
2022-12-01T11:39:44.305Z,17.45
2022-12-01T11:42:14.913Z,18.10
2022-12-01T11:44:54.036Z,12.98
2022-12-01T11:47:25.074Z,11.80
2022-12-01T11:49:59.128Z,15.65
2022-12-01T11:52:30.936Z,24.83
2022-12-01T11:55:12.837Z,14.52
2022-12-01T11:57:46.065Z,15.27
2022-12-01T12:00:21.518Z,15.73
2022-12-01T12:03:07.209Z,25.63
2022-12-01T12:06:17.835Z,29.52
2022-12-01T12:09:11.408Z,16.25
2022-12-01T12:12:03.231Z,119.97
2022-12-01T12:14:47.622Z,27.17
2022-12-01T12:17:28.148Z,18.60
2022-12-01T12:20:26.520Z,49.65
2022-12-01T12:23:25.475Z,18.67
2022-12-01T12:25:58.349Z,30.70
2022-12-01T12:28:43.886Z,12.37
2022-12-01T12:31:38.567Z,21.98
2022-12-01T12:34:32.591Z,14.52
2022-12-01T12:37:25.511Z,26.70
2022-12-01T12:40:08.635Z,13.80
2022-12-01T12:42:45.175Z,25.97
2022-12-01T12:45:43.980Z,17.02
2022-12-01T12:52:28.997Z,14.20
2022-12-01T12:55:04.396Z,14.82
2022-12-01T12:58:00.324Z,15.60
2022-12-01T13:00:29.935Z,19.05
2022-12-01T13:03:43.334Z,13.65
2022-12-01T13:06:21.647Z,16.15
2022-12-01T13:09:07.091Z,17.85
2022-12-01T13:12:10.485Z,13.47
2022-12-01T13:15:18.075Z,14.48
2022-12-01T13:18:16.515Z,15.60
2022-12-01T13:20:44.683Z,15.25
2022-12-01T13:23:18.778Z,16.52
2022-12-01T13:26:12.341Z,22.13
2022-12-01T13:28:52.184Z,25.70
2022-12-01T13:31:21.353Z,35.20
2022-12-01T13:34:05.637Z,28.35
2022-12-01T13:36:49.921Z,34.85
2022-12-01T13:39:20.930Z,31.03
2022-12-01T13:42:05.530Z,23.42
2022-12-01T13:44:52.165Z,26.17
2022-12-01T13:47:20.420Z,43.90
2022-12-01T13:49:51.264Z,27.15
2022-12-01T13:52:22.556Z,34.70
2022-12-01T13:55:08.729Z,50.75
2022-12-01T13:57:43.535Z,26.05
2022-12-01T14:00:35.059Z,278.95
2022-12-01T14:03:39.031Z,367.60
2022-12-01T14:06:10.687Z,121.90
2022-12-01T14:08:52.356Z,70.97
2022-12-01T14:11:25.696Z,51.05
2022-12-01T14:14:25.778Z,41.05
2022-12-01T14:16:58.820Z,192.48
2022-12-01T14:19:53.076Z,144.83
2022-12-01T14:22:47.031Z,102.22
2022-12-01T14:25:21.513Z,89.45
2022-12-01T14:27:52.921Z,96.10
2022-12-01T14:30:46.170Z,75.93
2022-12-01T14:33:53.109Z,57.83
2022-12-01T14:36:41.578Z,52.85
2022-12-01T14:39:12.656Z,44.58
2022-12-01T14:41:48.455Z,60.97
2022-12-01T14:44:53.763Z,56.85
2022-12-01T14:47:44.914Z,59.13
2022-12-01T14:50:54.743Z,55.97
2022-12-01T14:57:48.309Z,44.88
2022-12-01T15:00:22.429Z,44.55
2022-12-01T15:02:56.830Z,40.70
2022-12-01T15:05:46.997Z,42.03
2022-12-01T15:08:43.446Z,42.40
2022-12-01T15:11:25.944Z,43.13
2022-12-01T15:13:55.935Z,36.25
2022-12-01T15:16:31.179Z,28.17
2022-12-01T15:18:59.395Z,33.33
2022-12-01T15:21:36.710Z,28.55
2022-12-01T15:24:31.356Z,26.85
2022-12-01T15:27:03.829Z,25.75
2022-12-01T15:29:45.962Z,20.63
2022-12-01T15:32:17.185Z,27.65
2022-12-01T15:34:48.026Z,26.50
2022-12-01T15:37:21.490Z,21.85
2022-12-01T15:40:00.842Z,25.52
2022-12-01T15:42:42.942Z,35.70
2022-12-01T15:45:25.921Z,50.67
2022-12-01T15:48:23.583Z,29.10
2022-12-01T15:51:16.767Z,24.35
2022-12-01T15:53:54.712Z,21.95
2022-12-01T15:56:36.159Z,21.70
2022-12-01T15:59:35.893Z,18.63
2022-12-01T16:02:41.441Z,19.20
2022-12-01T16:05:09.737Z,72.80
2022-12-01T16:08:13.486Z,41.97
2022-12-01T16:11:18.460Z,26.20
2022-12-01T16:14:05.417Z,24.20
2022-12-01T16:20:42.988Z,30.88
2022-12-01T16:23:20.066Z,25.77
2022-12-01T16:25:48.821Z,25.07
2022-12-01T16:28:24.499Z,24.67
2022-12-01T16:30:53.210Z,20.13
2022-12-01T16:33:24.503Z,20.83
2022-12-01T16:35:54.303Z,22.15
2022-12-01T16:38:25.360Z,18.87
2022-12-01T16:40:56.711Z,26.05
2022-12-01T16:43:31.987Z,71.38
2022-12-01T16:46:28.706Z,78.43
2022-12-01T16:52:06.945Z,31.87
2022-12-01T16:54:50.320Z,49.72
2022-12-01T16:57:18.228Z,51.00
2022-12-01T17:00:12.019Z,53.30
2022-12-01T17:02:39.804Z,48.72
2022-12-01T17:05:08.385Z,38.13
2022-12-01T17:10:43.852Z,34.15
2022-12-01T17:13:13.412Z,34.42
2022-12-01T17:15:44.544Z,39.80
2022-12-01T17:18:18.330Z,40.97
2022-12-01T17:21:26.176Z,41.25
2022-12-01T17:24:10.974Z,41.75
2022-12-01T17:26:39.007Z,39.65
2022-12-01T17:29:08.800Z,35.33
2022-12-01T17:31:37.836Z,33.80
2022-12-01T17:34:05.920Z,37.92
2022-12-01T17:36:34.603Z,31.13
2022-12-01T17:39:02.548Z,34.35
2022-12-01T17:41:36.166Z,29.50
2022-12-01T17:44:05.623Z,31.43
2022-12-01T17:46:33.998Z,39.15
2022-12-01T17:49:02.002Z,34.42
2022-12-01T17:51:30.126Z,33.10
2022-12-01T17:53:57.834Z,34.38
2022-12-01T17:56:25.841Z,30.90
2022-12-01T17:58:54.231Z,34.83
2022-12-01T18:01:30.235Z,29.70
2022-12-01T18:04:49.982Z,32.50
2022-12-01T18:07:18.380Z,29.80
2022-12-01T18:09:53.555Z,30.83
2022-12-01T18:12:33.283Z,35.28
2022-12-01T18:15:34.678Z,44.55
2022-12-01T18:18:29.534Z,53.35
2022-12-01T18:20:58.353Z,43.17
2022-12-01T18:23:26.597Z,51.27
2022-12-01T18:25:54.372Z,39.55
2022-12-01T18:28:58.986Z,33.85
2022-12-01T18:31:30.361Z,34.30
2022-12-01T18:34:17.718Z,40.33
2022-12-01T18:36:45.766Z,44.37
2022-12-01T18:39:14.103Z,51.35
2022-12-01T18:41:57.123Z,57.72
2022-12-01T18:44:33.725Z,56.20
2022-12-01T18:47:06.911Z,52.97
2022-12-01T18:49:35.238Z,43.30
2022-12-01T18:52:03.970Z,40.95
2022-12-01T18:54:32.082Z,45.80
2022-12-01T18:56:59.966Z,46.72
2022-12-01T18:59:28.282Z,42.40
2022-12-01T19:06:27.709Z,34.75
2022-12-01T19:08:56.709Z,36.15
2022-12-01T19:11:25.040Z,39.25
2022-12-01T19:13:53.007Z,33.38
2022-12-01T19:16:21.113Z,37.57
2022-12-01T19:18:48.987Z,36.45
2022-12-01T19:21:43.267Z,37.08
2022-12-01T19:24:11.728Z,37.10
2022-12-01T19:26:40.028Z,41.03
2022-12-01T19:29:08.551Z,45.43
2022-12-01T19:31:36.615Z,40.55
2022-12-01T19:34:04.752Z,48.13
2022-12-01T19:36:36.304Z,40.88
2022-12-01T19:39:07.666Z,43.03
2022-12-01T19:41:38.879Z,42.20
2022-12-01T19:44:07.177Z,37.53
2022-12-01T19:47:29.625Z,37.20
2022-12-01T19:49:57.297Z,34.72
2022-12-01T19:52:26.601Z,41.45
2022-12-01T19:54:55.162Z,41.13
2022-12-01T19:57:23.178Z,41.08
2022-12-01T20:03:59.354Z,38.10
2022-12-01T20:06:30.075Z,43.20
2022-12-01T20:09:00.682Z,42.37
2022-12-01T20:11:33.337Z,37.92
2022-12-01T20:14:03.868Z,33.95
2022-12-01T20:16:32.563Z,34.53
2022-12-01T20:19:02.701Z,34.72
2022-12-01T20:21:36.365Z,31.50
2022-12-01T20:24:07.007Z,36.38
2022-12-01T20:26:37.882Z,33.60
2022-12-01T20:29:11.886Z,35.60
2022-12-01T20:31:40.329Z,30.23
2022-12-01T20:34:14.652Z,36.40
2022-12-01T20:36:43.046Z,30.15
2022-12-01T20:39:12.089Z,30.67
2022-12-01T20:41:41.122Z,33.90
2022-12-01T20:44:13.015Z,32.72
2022-12-01T20:46:41.379Z,46.83
2022-12-01T20:49:09.949Z,43.22
2022-12-01T20:51:38.001Z,41.47
2022-12-01T20:56:59.285Z,44.25
2022-12-01T20:59:28.452Z,41.23
2022-12-01T21:01:56.408Z,43.72
2022-12-01T21:04:24.777Z,40.03
2022-12-01T21:06:56.124Z,38.58
2022-12-01T21:09:23.911Z,45.80
2022-12-01T21:15:33.969Z,40.70
2022-12-01T21:18:11.218Z,51.50
2022-12-01T21:20:44.444Z,44.97
2022-12-01T21:23:17.994Z,42.70
2022-12-01T21:25:48.187Z,37.80
2022-12-01T21:28:24.657Z,40.08
2022-12-01T21:31:07.946Z,35.22
2022-12-01T21:33:37.417Z,40.92
2022-12-01T21:36:26.421Z,35.38
2022-12-01T21:39:01.931Z,36.70
2022-12-01T21:41:31.797Z,41.95
2022-12-01T21:44:16.402Z,41.83
2022-12-01T21:46:44.914Z,40.72
2022-12-01T21:49:19.675Z,39.60
2022-12-01T21:51:50.434Z,42.97
2022-12-01T21:54:22.944Z,43.85
2022-12-01T21:56:56.504Z,38.97
2022-12-01T21:59:25.449Z,42.63
2022-12-01T22:01:57.586Z,33.53
2022-12-01T22:04:30.456Z,36.20
2022-12-01T22:06:58.800Z,37.50
2022-12-01T22:09:35.711Z,35.90
2022-12-01T22:16:33.112Z,36.17
2022-12-01T22:19:34.295Z,34.17
2022-12-01T22:22:29.504Z,33.35
2022-12-01T22:25:43.600Z,31.92
2022-12-01T22:32:12.684Z,31.85
2022-12-01T22:34:45.866Z,30.60
2022-12-01T22:37:22.401Z,34.30
2022-12-01T22:39:57.439Z,31.77
2022-12-01T22:42:35.108Z,33.78
2022-12-01T22:45:27.989Z,34.38
2022-12-01T22:48:01.078Z,30.27
2022-12-01T22:50:32.045Z,30.10
2022-12-01T22:53:13.449Z,30.70
2022-12-01T22:55:41.858Z,27.95
2022-12-01T22:58:25.657Z,30.20
2022-12-01T23:00:56.895Z,32.37
2022-12-01T23:03:26.703Z,33.85
2022-12-01T23:05:57.397Z,33.08
2022-12-01T23:08:25.231Z,32.90
2022-12-01T23:10:53.319Z,29.90
2022-12-01T23:13:23.270Z,31.77
2022-12-01T23:15:53.889Z,29.50
2022-12-01T23:18:25.830Z,32.33
2022-12-01T23:20:56.429Z,33.25
2022-12-01T23:23:30.299Z,34.25
2022-12-01T23:25:59.297Z,30.97
2022-12-01T23:29:41.518Z,36.35
2022-12-01T23:32:11.397Z,30.60
2022-12-01T23:34:39.064Z,33.08
2022-12-01T23:37:37.560Z,30.92
2022-12-01T23:40:55.655Z,29.73
2022-12-01T23:43:30.163Z,36.38
2022-12-01T23:46:28.706Z,35.55
2022-12-01T23:49:02.357Z,33.70
2022-12-01T23:52:04.155Z,39.50
2022-12-01T23:54:34.927Z,30.67
